Seattle, Washington
Current Conditions -  °F | °C
As of 3:53 PM on Friday 31 Oct 2014 (Local Time) from KBFI Reporting Station
Broken Clouds Broken Clouds  
Wind Chill: 14°   Ceiling: 5000
Heat Index: 14°   Visibility: 10mi
Dew Point:   Wind: 7mph
Humidity: 72%   Direction: 180°S
Pressure: 29.83"   Gusts: NA
Location:  47.6°N, 122.32°W
Report Text: KBFI 312253Z 18006KT 10SM SCT019 BKN050 14/09 A2983 RMK AO2 SLP102 T01390089
Loading
Personal Weather Stations






























Interactive Weather Map New forecast layout! Learn more

10-Day Weather Forecast

Advertisements
Track Severe Weather on mobile